createdAt,value
2022-10-28T00:01:21.297Z,9.38
2022-10-28T00:03:49.917Z,9.40
2022-10-28T00:06:21.456Z,9.39
2022-10-28T00:08:48.603Z,9.36
2022-10-28T00:11:17.474Z,9.32
2022-10-28T00:13:45.709Z,9.28
2022-10-28T00:16:15.593Z,9.22
2022-10-28T00:18:43.554Z,9.17
2022-10-28T00:21:12.222Z,9.12
2022-10-28T00:23:41.005Z,9.09
2022-10-28T00:26:10.106Z,9.07
2022-10-28T00:28:40.928Z,9.05
2022-10-28T00:31:09.063Z,9.03
2022-10-28T00:33:36.121Z,8.99
2022-10-28T00:36:15.226Z,8.97
2022-10-28T00:38:48.377Z,8.94
2022-10-28T00:41:17.398Z,8.93
2022-10-28T00:43:46.460Z,8.90
2022-10-28T00:46:18.813Z,8.89
2022-10-28T00:48:51.093Z,8.85
2022-10-28T00:51:21.043Z,8.83
2022-10-28T00:53:52.028Z,8.83
2022-10-28T00:56:19.873Z,8.81
2022-10-28T00:58:48.632Z,8.78
2022-10-28T01:01:15.706Z,8.74
2022-10-28T01:03:42.822Z,8.68
2022-10-28T01:06:10.764Z,8.65
2022-10-28T01:08:38.163Z,8.63
2022-10-28T01:11:23.441Z,8.61
2022-10-28T01:14:03.879Z,8.60
2022-10-28T01:16:38.781Z,8.59
2022-10-28T01:19:41.835Z,8.56
2022-10-28T01:22:18.756Z,8.53
2022-10-28T01:25:06.773Z,8.52
2022-10-28T01:28:07.083Z,8.52
2022-10-28T01:30:43.148Z,8.51
2022-10-28T01:33:20.565Z,8.49
2022-10-28T01:35:52.871Z,8.49
2022-10-28T01:38:30.082Z,8.50
2022-10-28T01:41:04.122Z,8.47
2022-10-28T01:43:34.477Z,8.40
2022-10-28T01:46:06.242Z,8.39
2022-10-28T01:48:40.171Z,8.34
2022-10-28T01:51:13.760Z,8.32
2022-10-28T01:53:44.151Z,8.29
2022-10-28T01:56:16.378Z,8.29
2022-10-28T01:58:45.141Z,8.27
2022-10-28T02:01:13.494Z,8.28
2022-10-28T02:03:41.915Z,8.25
2022-10-28T02:06:17.272Z,8.25
2022-10-28T02:08:49.478Z,8.26
2022-10-28T02:11:30.967Z,8.19
2022-10-28T02:14:07.299Z,8.18
2022-10-28T02:16:40.546Z,8.16
2022-10-28T02:19:15.922Z,8.17
2022-10-28T02:21:49.393Z,8.16
2022-10-28T02:24:21.356Z,8.09
2022-10-28T02:26:54.047Z,8.05
2022-10-28T02:29:26.968Z,8.05
2022-10-28T02:31:58.430Z,8.01
2022-10-28T02:34:34.018Z,7.97
2022-10-28T02:37:06.347Z,7.94
2022-10-28T02:39:39.611Z,7.92
2022-10-28T02:42:09.894Z,7.90
2022-10-28T02:44:42.486Z,7.87
2022-10-28T02:47:15.240Z,7.80
2022-10-28T02:49:47.317Z,7.82
2022-10-28T02:52:16.942Z,7.85
2022-10-28T02:54:49.355Z,7.85
2022-10-28T02:57:20.066Z,7.86
2022-10-28T02:59:52.961Z,7.87
2022-10-28T03:02:20.360Z,7.86
2022-10-28T03:04:48.714Z,7.83
2022-10-28T03:07:15.742Z,7.84
2022-10-28T03:09:43.425Z,7.87
2022-10-28T03:12:10.534Z,7.88
2022-10-28T03:14:37.820Z,7.87
2022-10-28T03:17:05.163Z,7.89
2022-10-28T03:19:32.212Z,7.91
2022-10-28T03:22:00.915Z,7.90
2022-10-28T03:24:27.955Z,7.90
2022-10-28T03:26:55.229Z,7.90
2022-10-28T03:29:22.182Z,7.90
2022-10-28T03:31:49.237Z,7.87
2022-10-28T03:34:16.238Z,7.82
2022-10-28T03:36:43.348Z,7.79
2022-10-28T03:39:11.708Z,7.77
2022-10-28T03:41:38.825Z,7.75
2022-10-28T03:44:06.141Z,7.74
2022-10-28T03:46:35.178Z,7.76
2022-10-28T03:49:06.193Z,7.75
2022-10-28T03:51:33.467Z,7.76
2022-10-28T03:54:00.547Z,7.76
2022-10-28T03:56:28.883Z,7.72
2022-10-28T03:58:55.835Z,7.68
2022-10-28T04:01:22.881Z,7.67
2022-10-28T04:03:49.959Z,7.62
2022-10-28T04:06:17.171Z,7.60
2022-10-28T04:08:44.164Z,7.61
2022-10-28T04:11:11.218Z,7.58
2022-10-28T04:13:39.750Z,7.55
2022-10-28T04:16:07.550Z,7.49
2022-10-28T04:18:35.558Z,7.49
2022-10-28T04:21:02.917Z,7.48
2022-10-28T04:23:29.837Z,7.45
2022-10-28T04:25:56.954Z,7.41
2022-10-28T04:28:27.108Z,7.36
2022-10-28T04:30:55.493Z,7.35
2022-10-28T04:33:22.448Z,7.34
2022-10-28T04:35:49.439Z,7.30
2022-10-28T04:38:16.494Z,7.28
2022-10-28T04:40:44.052Z,7.28
2022-10-28T04:43:11.925Z,7.28
2022-10-28T04:45:39.556Z,7.23
2022-10-28T04:48:09.522Z,7.24
2022-10-28T04:50:36.655Z,7.26
2022-10-28T04:53:10.707Z,7.29
2022-10-28T04:55:37.700Z,7.26
2022-10-28T04:58:04.825Z,7.24
2022-10-28T05:00:32.336Z,7.20
2022-10-28T05:03:01.593Z,7.21
2022-10-28T05:05:30.239Z,7.22
2022-10-28T05:07:57.415Z,7.24
2022-10-28T05:10:24.805Z,7.36
2022-10-28T05:12:51.775Z,7.67
2022-10-28T05:15:18.809Z,8.06
2022-10-28T05:17:47.078Z,8.45
2022-10-28T05:20:16.475Z,8.80
2022-10-28T05:22:49.193Z,9.17
2022-10-28T05:25:16.881Z,9.53
2022-10-28T05:27:43.973Z,9.87
2022-10-28T05:30:11.975Z,10.20
2022-10-28T05:32:38.982Z,10.54
2022-10-28T05:35:06.986Z,10.82
2022-10-28T05:37:34.275Z,11.07
2022-10-28T05:40:02.758Z,11.28
2022-10-28T05:42:29.779Z,11.51
2022-10-28T05:44:56.862Z,11.75
2022-10-28T05:47:24.751Z,11.94
2022-10-28T05:49:51.686Z,12.12
2022-10-28T05:52:18.598Z,12.34
2022-10-28T05:54:45.958Z,12.55
2022-10-28T05:57:14.495Z,12.77
2022-10-28T05:59:41.792Z,13.04
2022-10-28T06:02:13.427Z,13.24
2022-10-28T06:04:41.238Z,13.43
2022-10-28T06:07:08.806Z,13.71
2022-10-28T06:09:36.327Z,13.95
2022-10-28T06:12:02.122Z,14.17
2022-10-28T06:14:30.866Z,14.38
2022-10-28T06:16:57.923Z,14.47
2022-10-28T06:19:24.999Z,14.59
2022-10-28T06:21:51.979Z,14.71
2022-10-28T06:24:19.019Z,14.94
2022-10-28T06:26:46.004Z,15.12
2022-10-28T06:29:13.080Z,15.26
2022-10-28T06:31:41.844Z,15.36
2022-10-28T06:34:09.183Z,15.56
2022-10-28T06:36:36.175Z,15.83
2022-10-28T06:39:03.339Z,16.00
2022-10-28T06:41:30.674Z,16.18
2022-10-28T06:43:57.695Z,16.32
2022-10-28T06:46:24.978Z,16.53
2022-10-28T06:48:55.927Z,16.82
2022-10-28T06:51:23.149Z,17.11
2022-10-28T06:53:50.562Z,17.36
2022-10-28T06:56:18.043Z,17.62
2022-10-28T06:58:44.976Z,17.89
2022-10-28T07:01:11.965Z,18.13
2022-10-28T07:03:38.972Z,18.37
2022-10-28T07:06:07.799Z,18.42
2022-10-28T07:08:34.801Z,18.59
2022-10-28T07:11:02.657Z,18.86
2022-10-28T07:13:29.902Z,19.06
2022-10-28T07:15:58.754Z,19.28
2022-10-28T07:18:37.036Z,19.39
2022-10-28T07:21:04.357Z,19.63
2022-10-28T07:23:33.036Z,19.89
2022-10-28T07:26:00.347Z,20.13
2022-10-28T07:28:28.053Z,20.35
2022-10-28T07:30:55.153Z,20.49
2022-10-28T07:33:22.132Z,20.64
2022-10-28T07:35:49.228Z,20.83
2022-10-28T07:38:16.249Z,21.06
2022-10-28T07:40:44.772Z,21.32
2022-10-28T07:43:11.860Z,21.56
2022-10-28T07:45:39.247Z,21.77
2022-10-28T07:48:07.233Z,22.02
2022-10-28T07:50:34.600Z,22.23
2022-10-28T07:53:01.669Z,22.48
2022-10-28T07:55:28.825Z,22.74
2022-10-28T07:57:57.470Z,22.91
2022-10-28T08:00:24.619Z,23.11
2022-10-28T08:02:51.594Z,23.37
2022-10-28T08:05:18.848Z,23.63
2022-10-28T08:07:47.075Z,23.90
2022-10-28T08:10:14.381Z,24.14
2022-10-28T08:12:41.367Z,24.34
2022-10-28T08:15:12.773Z,24.53
2022-10-28T08:17:39.944Z,24.68
2022-10-28T08:20:07.456Z,24.58
2022-10-28T08:22:34.528Z,24.53
2022-10-28T08:25:01.877Z,24.48
2022-10-28T08:27:28.935Z,24.54
2022-10-28T08:29:55.977Z,24.55
2022-10-28T08:32:24.579Z,24.66
2022-10-28T08:34:51.587Z,24.83
2022-10-28T08:37:18.674Z,24.92
2022-10-28T08:39:45.793Z,24.95
2022-10-28T08:42:35.537Z,25.08
2022-10-28T08:45:20.296Z,25.45
2022-10-28T08:47:56.832Z,25.55
2022-10-28T08:50:27.843Z,25.46
2022-10-28T08:52:59.293Z,25.58
2022-10-28T08:55:30.729Z,25.96
2022-10-28T08:58:02.703Z,26.29
2022-10-28T09:00:32.727Z,26.58
2022-10-28T09:03:14.970Z,26.73
2022-10-28T09:05:44.749Z,26.84
2022-10-28T09:08:21.532Z,27.02
2022-10-28T09:11:02.596Z,27.27
2022-10-28T09:13:38.193Z,27.50
2022-10-28T09:16:16.348Z,27.65
2022-10-28T09:18:52.192Z,27.57
2022-10-28T09:21:23.028Z,27.75
2022-10-28T09:23:56.586Z,27.99
2022-10-28T09:26:46.106Z,28.24
2022-10-28T09:29:21.799Z,28.44
2022-10-28T09:31:53.166Z,28.62
2022-10-28T09:34:31.803Z,28.77
2022-10-28T09:37:04.667Z,28.93
2022-10-28T09:39:43.343Z,29.10
2022-10-28T09:42:18.148Z,29.22
2022-10-28T09:44:49.760Z,29.31
2022-10-28T09:47:21.201Z,29.38
2022-10-28T09:49:51.750Z,29.52
2022-10-28T09:52:22.763Z,29.54
2022-10-28T09:54:52.197Z,29.62
2022-10-28T09:57:19.872Z,29.65
2022-10-28T09:59:47.242Z,29.70
2022-10-28T10:02:29.849Z,29.85
2022-10-28T10:04:59.637Z,29.91
2022-10-28T10:07:33.093Z,29.97
2022-10-28T10:12:38.104Z,30.21
2022-10-28T10:15:07.725Z,30.30
2022-10-28T10:17:41.608Z,30.35
2022-10-28T10:20:11.834Z,30.10
2022-10-28T10:22:41.017Z,29.61
2022-10-28T10:25:29.823Z,29.20
2022-10-28T10:27:59.882Z,29.36
2022-10-28T10:30:30.684Z,29.70
2022-10-28T10:32:59.135Z,29.94
2022-10-28T10:35:30.318Z,29.99
2022-10-28T10:37:59.786Z,30.00
2022-10-28T10:40:31.312Z,30.02
2022-10-28T10:43:21.550Z,30.11
2022-10-28T10:46:01.615Z,30.15
2022-10-28T10:48:29.000Z,30.13
2022-10-28T10:50:58.206Z,30.10
2022-10-28T10:53:26.815Z,30.14
2022-10-28T10:55:57.097Z,30.09
2022-10-28T10:58:26.844Z,30.11
2022-10-28T11:00:57.846Z,30.25
2022-10-28T11:03:28.296Z,30.35
2022-10-28T11:06:22.500Z,30.31
2022-10-28T11:08:46.227Z,30.36
2022-10-28T11:11:18.620Z,30.42
2022-10-28T11:13:46.794Z,30.30
2022-10-28T11:16:22.502Z,30.00
2022-10-28T11:18:51.251Z,30.17
2022-10-28T11:21:44.357Z,30.04
2022-10-28T11:24:28.272Z,29.74
2022-10-28T11:27:03.630Z,29.52
2022-10-28T11:29:30.866Z,29.65
2022-10-28T11:32:27.688Z,29.86
2022-10-28T11:35:23.635Z,29.79
2022-10-28T11:38:02.490Z,29.87
2022-10-28T11:40:37.581Z,29.79
2022-10-28T11:43:19.796Z,29.88
2022-10-28T11:45:55.087Z,29.86
2022-10-28T11:48:35.106Z,29.94
2022-10-28T11:51:23.908Z,29.95
2022-10-28T11:54:15.070Z,29.89
2022-10-28T11:56:46.189Z,30.04
2022-10-28T11:59:41.894Z,30.14
2022-10-28T12:02:30.828Z,29.86
2022-10-28T12:05:04.231Z,29.39
2022-10-28T12:07:48.556Z,29.02
2022-10-28T12:10:33.166Z,28.99
2022-10-28T12:13:10.249Z,29.13
2022-10-28T12:15:45.901Z,29.24
2022-10-28T12:18:23.016Z,29.39
2022-10-28T12:20:57.997Z,29.56
2022-10-28T12:23:26.274Z,29.64
2022-10-28T12:25:57.551Z,29.69
2022-10-28T12:28:28.146Z,29.75
2022-10-28T12:30:56.924Z,29.79
2022-10-28T12:33:27.798Z,29.79
2022-10-28T12:36:15.430Z,29.42
2022-10-28T12:38:46.860Z,29.03
2022-10-28T12:41:21.460Z,28.80
2022-10-28T12:43:53.237Z,28.26
2022-10-28T12:46:45.007Z,27.73
2022-10-28T12:49:18.581Z,27.43
2022-10-28T12:51:46.281Z,27.27
2022-10-28T12:54:21.552Z,27.01
2022-10-28T12:56:55.159Z,26.67
2022-10-28T12:59:30.752Z,26.42
2022-10-28T13:02:01.445Z,26.19
2022-10-28T13:04:29.516Z,25.96
2022-10-28T13:07:14.352Z,25.76
2022-10-28T13:09:50.561Z,25.60
2022-10-28T13:12:49.569Z,25.58
2022-10-28T13:15:34.168Z,25.66
2022-10-28T13:18:23.656Z,25.56
2022-10-28T13:20:59.729Z,25.38
2022-10-28T13:23:34.761Z,25.46
2022-10-28T13:26:15.545Z,25.58
2022-10-28T13:28:46.780Z,25.78
2022-10-28T13:31:15.513Z,25.92
2022-10-28T13:33:50.665Z,26.02
2022-10-28T13:36:20.795Z,26.00
2022-10-28T13:38:53.853Z,25.87
2022-10-28T13:41:36.635Z,25.92
2022-10-28T13:44:27.002Z,26.00
2022-10-28T13:47:25.222Z,25.99
2022-10-28T13:50:32.852Z,25.97
2022-10-28T13:53:36.446Z,25.87
2022-10-28T13:56:16.093Z,25.74
2022-10-28T13:58:50.518Z,25.55
2022-10-28T14:02:01.585Z,25.39
2022-10-28T14:04:37.527Z,25.17
2022-10-28T14:07:27.971Z,25.04
2022-10-28T14:09:58.912Z,24.86
2022-10-28T14:12:31.493Z,24.77
2022-10-28T14:15:18.099Z,24.69
2022-10-28T14:17:51.359Z,24.67
2022-10-28T14:20:32.111Z,24.61
2022-10-28T14:22:59.735Z,24.53
2022-10-28T14:25:59.871Z,24.41
2022-10-28T14:28:55.649Z,24.25
2022-10-28T14:31:45.526Z,24.11
2022-10-28T14:34:36.771Z,23.97
2022-10-28T14:37:28.311Z,23.80
2022-10-28T14:40:14.151Z,23.63
2022-10-28T14:42:56.755Z,23.42
2022-10-28T14:45:34.374Z,23.25
2022-10-28T14:48:25.578Z,23.10
2022-10-28T14:50:55.390Z,22.95
2022-10-28T14:53:28.180Z,22.81
2022-10-28T14:56:00.874Z,22.68
2022-10-28T14:58:30.705Z,22.53
2022-10-28T15:01:09.606Z,22.38
2022-10-28T15:03:38.365Z,22.24
2022-10-28T15:06:39.309Z,22.07
2022-10-28T15:09:21.553Z,21.89
2022-10-28T15:11:52.601Z,21.77
2022-10-28T15:14:32.374Z,21.63
2022-10-28T15:17:00.573Z,21.49
2022-10-28T15:19:29.472Z,21.37
2022-10-28T15:22:15.134Z,21.23
2022-10-28T15:24:53.389Z,21.09
2022-10-28T15:27:21.592Z,20.99
2022-10-28T15:29:49.243Z,20.86
2022-10-28T15:32:26.865Z,20.74
2022-10-28T15:34:54.094Z,20.61
2022-10-28T15:37:23.198Z,20.48
2022-10-28T15:39:53.427Z,20.37
2022-10-28T15:42:31.178Z,20.25
2022-10-28T15:44:58.911Z,20.13
2022-10-28T15:47:32.766Z,19.97
2022-10-28T15:50:02.442Z,19.85
2022-10-28T15:52:35.988Z,19.71
2022-10-28T15:55:35.601Z,19.57
2022-10-28T15:58:34.272Z,19.40
2022-10-28T16:01:01.444Z,19.28
2022-10-28T16:03:41.962Z,19.18
2022-10-28T16:06:25.032Z,19.07
2022-10-28T16:09:13.301Z,18.97
2022-10-28T16:11:44.489Z,18.84
2022-10-28T16:14:36.181Z,18.68
2022-10-28T16:17:11.773Z,18.60
2022-10-28T16:19:41.126Z,18.55
2022-10-28T16:22:12.661Z,18.45
2022-10-28T16:24:39.888Z,18.33
2022-10-28T16:27:22.305Z,18.24
2022-10-28T16:29:49.931Z,18.16
2022-10-28T16:32:20.026Z,18.08
2022-10-28T16:34:46.970Z,18.03
2022-10-28T16:37:25.978Z,17.98
2022-10-28T16:39:53.230Z,17.91
2022-10-28T16:42:22.541Z,17.83
2022-10-28T16:44:49.702Z,17.76
2022-10-28T16:47:18.700Z,17.67
2022-10-28T16:49:45.727Z,17.61
2022-10-28T16:52:15.892Z,17.57
2022-10-28T16:54:43.042Z,17.50
2022-10-28T16:57:10.076Z,17.36
2022-10-28T16:59:38.500Z,17.23
2022-10-28T17:02:13.930Z,17.14
2022-10-28T17:04:41.356Z,17.03
2022-10-28T17:07:08.356Z,16.91
2022-10-28T17:09:35.306Z,16.85
2022-10-28T17:12:02.240Z,16.78
2022-10-28T17:14:29.330Z,16.71
2022-10-28T17:16:57.906Z,16.66
2022-10-28T17:19:25.469Z,16.65
2022-10-28T17:21:52.637Z,16.62
2022-10-28T17:24:20.724Z,16.58
2022-10-28T17:26:47.887Z,16.52
2022-10-28T17:29:15.106Z,16.46
2022-10-28T17:31:42.106Z,16.39
2022-10-28T17:34:11.128Z,16.33
2022-10-28T17:36:38.741Z,16.24
2022-10-28T17:39:06.148Z,16.12
2022-10-28T17:41:33.264Z,16.02
2022-10-28T17:44:00.364Z,15.97
2022-10-28T17:46:27.407Z,15.87
2022-10-28T17:48:54.612Z,15.81
2022-10-28T17:51:25.325Z,15.71
2022-10-28T17:53:53.900Z,15.59
2022-10-28T17:56:21.186Z,15.50
2022-10-28T17:58:48.188Z,15.43
2022-10-28T18:01:15.755Z,15.35
2022-10-28T18:03:42.970Z,15.27
2022-10-28T18:06:11.816Z,15.20
2022-10-28T18:08:42.439Z,15.09
2022-10-28T18:11:11.281Z,14.98
2022-10-28T18:13:39.599Z,14.79
2022-10-28T18:16:08.555Z,14.68
2022-10-28T18:18:41.009Z,14.65
2022-10-28T18:21:10.470Z,14.64
2022-10-28T18:23:37.808Z,14.59
2022-10-28T18:26:09.151Z,14.56
2022-10-28T18:28:37.444Z,14.52
2022-10-28T18:31:09.713Z,14.46
2022-10-28T18:33:36.784Z,14.40
2022-10-28T18:36:06.346Z,14.38
2022-10-28T18:38:33.677Z,14.33
2022-10-28T18:41:00.873Z,14.27
2022-10-28T18:43:29.277Z,14.24
2022-10-28T18:46:01.297Z,14.16
2022-10-28T18:48:28.421Z,14.11
2022-10-28T18:50:56.488Z,14.04
2022-10-28T18:53:24.823Z,13.97
2022-10-28T18:55:52.197Z,13.93
2022-10-28T18:58:19.507Z,13.88
2022-10-28T19:00:47.849Z,13.81
2022-10-28T19:03:19.475Z,13.70
2022-10-28T19:05:46.482Z,13.62
2022-10-28T19:08:13.561Z,13.56
2022-10-28T19:10:40.678Z,13.51
2022-10-28T19:13:07.656Z,13.48
2022-10-28T19:15:40.100Z,13.39
2022-10-28T19:18:08.445Z,13.30
2022-10-28T19:20:35.523Z,13.23
2022-10-28T19:23:02.596Z,13.15
2022-10-28T19:25:29.831Z,13.08
2022-10-28T19:27:58.096Z,13.06
2022-10-28T19:30:25.061Z,13.01
2022-10-28T19:32:52.390Z,12.95
2022-10-28T19:35:21.488Z,12.90
2022-10-28T19:37:48.637Z,12.86
2022-10-28T19:40:15.744Z,12.81
2022-10-28T19:42:42.765Z,12.76
2022-10-28T19:45:10.170Z,12.74
2022-10-28T19:47:37.107Z,12.74
2022-10-28T19:50:04.434Z,12.72
2022-10-28T19:52:32.820Z,12.70
2022-10-28T19:55:00.070Z,12.66
2022-10-28T19:57:27.127Z,12.64
2022-10-28T19:59:54.120Z,12.57
2022-10-28T20:02:21.398Z,12.46
2022-10-28T20:04:53.312Z,12.39
2022-10-28T20:07:20.510Z,12.33
2022-10-28T20:09:48.999Z,12.30
2022-10-28T20:12:16.024Z,12.22
2022-10-28T20:14:42.989Z,12.21
2022-10-28T20:17:11.890Z,12.18
2022-10-28T20:19:38.916Z,12.17
2022-10-28T20:22:05.825Z,12.15
2022-10-28T20:24:32.739Z,12.12
2022-10-28T20:27:01.058Z,12.07
2022-10-28T20:29:28.003Z,12.04
2022-10-28T20:31:55.065Z,11.98
2022-10-28T20:34:22.368Z,11.95
2022-10-28T20:36:49.329Z,11.95
2022-10-28T20:39:17.889Z,11.91
2022-10-28T20:41:46.959Z,11.85
2022-10-28T20:44:16.454Z,11.80
2022-10-28T20:46:45.152Z,11.74
2022-10-28T20:49:13.275Z,11.70
2022-10-28T20:51:40.306Z,11.65
2022-10-28T20:54:07.357Z,11.55
2022-10-28T20:56:36.477Z,11.50
2022-10-28T20:59:04.129Z,11.49
2022-10-28T21:01:34.641Z,11.48
2022-10-28T21:04:03.549Z,11.43
2022-10-28T21:06:31.308Z,11.37
2022-10-28T21:08:58.725Z,11.33
2022-10-28T21:11:27.381Z,11.26
2022-10-28T21:13:56.470Z,11.24
2022-10-28T21:16:24.399Z,11.25
2022-10-28T21:18:53.416Z,11.19
2022-10-28T21:21:22.424Z,11.16
2022-10-28T21:23:49.521Z,11.14
2022-10-28T21:26:16.560Z,11.11
2022-10-28T21:28:43.896Z,11.10
2022-10-28T21:31:12.575Z,11.07
2022-10-28T21:33:40.680Z,11.04
2022-10-28T21:36:11.393Z,11.02
2022-10-28T21:38:38.670Z,10.99
2022-10-28T21:41:06.970Z,10.97
2022-10-28T21:43:35.968Z,10.91
2022-10-28T21:46:03.355Z,10.88
2022-10-28T21:48:31.059Z,10.84
2022-10-28T21:50:59.655Z,10.78
2022-10-28T21:53:31.628Z,10.69
2022-10-28T21:56:02.482Z,10.57
2022-10-28T21:58:29.525Z,10.50
2022-10-28T22:01:02.577Z,10.42
2022-10-28T22:03:29.526Z,10.39
2022-10-28T22:05:56.491Z,10.35
2022-10-28T22:08:23.504Z,10.30
2022-10-28T22:10:58.327Z,10.24
2022-10-28T22:13:25.513Z,10.22
2022-10-28T22:15:57.698Z,10.22
2022-10-28T22:18:24.684Z,10.20
2022-10-28T22:20:51.716Z,10.17
2022-10-28T22:23:19.034Z,10.15
2022-10-28T22:25:46.029Z,10.12
2022-10-28T22:28:14.534Z,10.05
2022-10-28T22:30:41.517Z,9.96
2022-10-28T22:33:08.457Z,9.86
2022-10-28T22:35:35.385Z,9.80
2022-10-28T22:38:02.405Z,9.78
2022-10-28T22:40:29.712Z,9.75
2022-10-28T22:42:56.639Z,9.74
2022-10-28T22:45:25.041Z,9.70
2022-10-28T22:47:52.193Z,9.64
2022-10-28T22:50:19.531Z,9.58
2022-10-28T22:52:46.490Z,9.55
2022-10-28T22:55:13.530Z,9.49
2022-10-28T22:57:40.604Z,9.43
2022-10-28T23:00:09.142Z,9.40
2022-10-28T23:02:37.647Z,9.35
2022-10-28T23:05:05.380Z,9.38
2022-10-28T23:07:32.443Z,9.40
2022-10-28T23:10:00.613Z,9.42
2022-10-28T23:12:27.540Z,9.43
2022-10-28T23:14:55.029Z,9.44
2022-10-28T23:17:21.996Z,9.41
2022-10-28T23:19:50.399Z,9.35
2022-10-28T23:22:17.412Z,9.33
2022-10-28T23:24:44.382Z,9.32
2022-10-28T23:27:11.329Z,9.30
2022-10-28T23:29:38.328Z,9.27
2022-10-28T23:32:05.554Z,9.25
2022-10-28T23:34:32.525Z,9.22
2022-10-28T23:37:00.909Z,9.21
2022-10-28T23:39:27.879Z,9.21
2022-10-28T23:41:54.814Z,9.21
2022-10-28T23:44:21.774Z,9.12
2022-10-28T23:46:48.780Z,9.10
2022-10-28T23:49:15.727Z,9.09
2022-10-28T23:51:42.669Z,9.03
2022-10-28T23:54:11.331Z,8.98
2022-10-28T23:56:38.288Z,8.96
2022-10-28T23:59:05.267Z,8.93
